sensor_id;sensor_type;location;lat;lon;timestamp;P1;durP1;ratioP1;P2;durP2;ratioP2
8401;SDS011;4238;48.404;9.498;2024-01-15T05:00:32;10.83;;;5.97;;
8401;SDS011;4238;48.404;9.498;2024-01-15T05:02:59;11.93;;;6.20;;
8401;SDS011;4238;48.404;9.498;2024-01-15T05:05:26;10.67;;;6.70;;
8401;SDS011;4238;48.404;9.498;2024-01-15T05:07:53;10.63;;;7.37;;
8401;SDS011;4238;48.404;9.498;2024-01-15T05:10:20;8.77;;;6.07;;
8401;SDS011;4238;48.404;9.498;2024-01-15T05:12:46;10.33;;;6.23;;
8401;SDS011;4238;48.404;9.498;2024-01-15T05:15:13;10.20;;;6.67;;
8401;SDS011;4238;48.404;9.498;2024-01-15T05:17:42;9.07;;;5.80;;
8401;SDS011;4238;48.404;9.498;2024-01-15T05:20:09;10.90;;;6.60;;
8401;SDS011;4238;48.404;9.498;2024-01-15T05:22:36;10.90;;;6.77;;
8401;SDS011;4238;48.404;9.498;2024-01-15T05:25:03;13.63;;;6.87;;
8401;SDS011;4238;48.404;9.498;2024-01-15T05:27:31;12.60;;;6.63;;
8401;SDS011;4238;48.404;9.498;2024-01-15T05:29:57;11.17;;;6.97;;
8401;SDS011;4238;48.404;9.498;2024-01-15T05:32:24;10.57;;;7.10;;
8401;SDS011;4238;48.404;9.498;2024-01-15T05:34:52;10.83;;;6.87;;
8401;SDS011;4238;48.404;9.498;2024-01-15T05:37:19;8.63;;;5.63;;
8401;SDS011;4238;48.404;9.498;2024-01-15T05:39:46;10.43;;;6.70;;
8401;SDS011;4238;48.404;9.498;2024-01-15T05:42:13;9.53;;;6.63;;
8401;SDS011;4238;48.404;9.498;2024-01-15T05:44:40;10.60;;;6.67;;
8401;SDS011;4238;48.404;9.498;2024-01-15T05:47:07;13.47;;;7.00;;
8401;SDS011;4238;48.404;9.498;2024-01-15T05:49:34;8.80;;;6.23;;
8401;SDS011;4238;48.404;9.498;2024-01-15T05:52:02;9.53;;;5.70;;
8401;SDS011;4238;48.404;9.498;2024-01-15T05:54:31;6.17;;;5.20;;
8401;SDS011;4238;48.404;9.498;2024-01-15T05:56:57;10.43;;;6.00;;
8401;SDS011;4238;48.404;9.498;2024-01-15T05:59:24;9.43;;;6.03;;
8401;SDS011;4238;48.404;9.498;2024-01-15T06:01:51;10.90;;;6.70;;
8401;SDS011;4238;48.404;9.498;2024-01-15T06:04:18;8.63;;;6.20;;
8401;SDS011;4238;48.404;9.498;2024-01-15T06:06:45;11.67;;;6.83;;
8401;SDS011;4238;48.404;9.498;2024-01-15T06:09:13;8.13;;;6.33;;
8401;SDS011;4238;48.404;9.498;2024-01-15T06:11:40;8.63;;;5.93;;
8401;SDS011;4238;48.404;9.498;2024-01-15T06:14:07;8.93;;;5.97;;
8401;SDS011;4238;48.404;9.498;2024-01-15T06:16:34;8.47;;;5.73;;
8401;SDS011;4238;48.404;9.498;2024-01-15T06:19:00;9.20;;;5.80;;
8401;SDS011;4238;48.404;9.498;2024-01-15T06:21:28;13.30;;;6.93;;
8401;SDS011;4238;48.404;9.498;2024-01-15T06:23:55;8.33;;;6.40;;
8401;SDS011;4238;48.404;9.498;2024-01-15T06:26:23;7.67;;;5.53;;
8401;SDS011;4238;48.404;9.498;2024-01-15T06:28:50;9.20;;;5.77;;
8401;SDS011;4238;48.404;9.498;2024-01-15T06:31:17;8.03;;;5.67;;
8401;SDS011;4238;48.404;9.498;2024-01-15T06:33:44;8.03;;;6.80;;
8401;SDS011;4238;48.404;9.498;2024-01-15T06:36:13;8.33;;;6.13;;
8401;SDS011;4238;48.404;9.498;2024-01-15T06:38:41;9.00;;;5.90;;
8401;SDS011;4238;48.404;9.498;2024-01-15T06:41:09;9.80;;;6.57;;
8401;SDS011;4238;48.404;9.498;2024-01-15T06:43:37;9.40;;;5.80;;
8401;SDS011;4238;48.404;9.498;2024-01-15T06:46:04;10.50;;;7.00;;
8401;SDS011;4238;48.404;9.498;2024-01-15T06:48:31;10.43;;;6.77;;
8401;SDS011;4238;48.404;9.498;2024-01-15T06:50:57;8.03;;;6.27;;
8401;SDS011;4238;48.404;9.498;2024-01-15T06:53:26;8.37;;;6.77;;
8401;SDS011;4238;48.404;9.498;2024-01-15T06:55:53;9.10;;;6.40;;
8401;SDS011;4238;48.404;9.498;2024-01-15T06:58:20;9.60;;;6.03;;
8401;SDS011;4238;48.404;9.498;2024-01-15T07:00:48;10.33;;;5.53;;
8401;SDS011;4238;48.404;9.498;2024-01-15T07:03:15;10.63;;;6.43;;
8401;SDS011;4238;48.404;9.498;2024-01-15T07:05:42;8.33;;;5.57;;
8401;SDS011;4238;48.404;9.498;2024-01-15T07:08:08;10.20;;;6.17;;
8401;SDS011;4238;48.404;9.498;2024-01-15T07:10:35;9.10;;;6.68;;
8401;SDS011;4238;48.404;9.498;2024-01-15T07:13:02;9.60;;;7.00;;
8401;SDS011;4238;48.404;9.498;2024-01-15T07:15:30;8.37;;;5.93;;
8401;SDS011;4238;48.404;9.498;2024-01-15T07:17:58;8.27;;;6.27;;
8401;SDS011;4238;48.404;9.498;2024-01-15T07:20:25;17.17;;;11.33;;
8401;SDS011;4238;48.404;9.498;2024-01-15T07:22:52;8.13;;;5.80;;
8401;SDS011;4238;48.404;9.498;2024-01-15T07:25:19;7.73;;;6.30;;
8401;SDS011;4238;48.404;9.498;2024-01-15T07:27:46;7.60;;;5.60;;
8401;SDS011;4238;48.404;9.498;2024-01-15T07:30:13;6.47;;;5.10;;
8401;SDS011;4238;48.404;9.498;2024-01-15T07:32:40;7.20;;;5.37;;
8401;SDS011;4238;48.404;9.498;2024-01-15T07:35:08;8.80;;;6.30;;
8401;SDS011;4238;48.404;9.498;2024-01-15T07:37:35;8.87;;;5.07;;
8401;SDS011;4238;48.404;9.498;2024-01-15T07:40:03;5.77;;;4.27;;
8401;SDS011;4238;48.404;9.498;2024-01-15T07:42:31;8.00;;;4.30;;
8401;SDS011;4238;48.404;9.498;2024-01-15T07:44:58;5.10;;;4.07;;
8401;SDS011;4238;48.404;9.498;2024-01-15T07:47:25;6.60;;;4.50;;
8401;SDS011;4238;48.404;9.498;2024-01-15T07:49:52;4.47;;;4.03;;
8401;SDS011;4238;48.404;9.498;2024-01-15T07:52:20;5.33;;;3.67;;
8401;SDS011;4238;48.404;9.498;2024-01-15T07:54:47;6.03;;;3.87;;
8401;SDS011;4238;48.404;9.498;2024-01-15T07:57:14;6.23;;;4.23;;
8401;SDS011;4238;48.404;9.498;2024-01-15T07:59:41;5.87;;;3.97;;
8401;SDS011;4238;48.404;9.498;2024-01-15T08:02:08;5.07;;;3.43;;
8401;SDS011;4238;48.404;9.498;2024-01-15T08:04:36;5.77;;;3.83;;
8401;SDS011;4238;48.404;9.498;2024-01-15T08:07:03;4.83;;;3.67;;
8401;SDS011;4238;48.404;9.498;2024-01-15T08:09:32;3.83;;;3.23;;
8401;SDS011;4238;48.404;9.498;2024-01-15T08:11:59;4.10;;;3.27;;
8401;SDS011;4238;48.404;9.498;2024-01-15T08:14:26;4.00;;;3.60;;
8401;SDS011;4238;48.404;9.498;2024-01-15T08:16:53;3.10;;;2.90;;
8401;SDS011;4238;48.404;9.498;2024-01-15T08:19:19;4.43;;;3.43;;
8401;SDS011;4238;48.404;9.498;2024-01-15T08:21:46;4.53;;;3.70;;
8401;SDS011;4238;48.404;9.498;2024-01-15T08:24:14;4.93;;;3.80;;
8401;SDS011;4238;48.404;9.498;2024-01-15T08:26:43;3.83;;;3.37;;
8401;SDS011;4238;48.404;9.498;2024-01-15T08:29:10;4.67;;;2.83;;
8401;SDS011;4238;48.404;9.498;2024-01-15T08:31:37;2.93;;;2.70;;
8401;SDS011;4238;48.404;9.498;2024-01-15T08:34:04;4.33;;;3.03;;
8401;SDS011;4238;48.404;9.498;2024-01-15T08:36:31;4.37;;;2.60;;
8401;SDS011;4238;48.404;9.498;2024-01-15T08:38:59;3.90;;;3.40;;
8401;SDS011;4238;48.404;9.498;2024-01-15T08:41:26;3.83;;;2.73;;
8401;SDS011;4238;48.404;9.498;2024-01-15T08:43:54;3.80;;;2.40;;
8401;SDS011;4238;48.404;9.498;2024-01-15T08:46:21;3.87;;;2.37;;
8401;SDS011;4238;48.404;9.498;2024-01-15T08:48:49;2.93;;;2.57;;
8401;SDS011;4238;48.404;9.498;2024-01-15T08:51:16;4.50;;;2.93;;
8401;SDS011;4238;48.404;9.498;2024-01-15T08:53:43;5.23;;;2.40;;
8401;SDS011;4238;48.404;9.498;2024-01-15T08:56:10;3.87;;;2.90;;
8401;SDS011;4238;48.404;9.498;2024-01-15T08:58:37;3.30;;;2.40;;
8401;SDS011;4238;48.404;9.498;2024-01-15T09:01:06;3.90;;;2.50;;
8401;SDS011;4238;48.404;9.498;2024-01-15T09:03:34;4.20;;;2.67;;
8401;SDS011;4238;48.404;9.498;2024-01-15T09:06:01;3.13;;;2.43;;
8401;SDS011;4238;48.404;9.498;2024-01-15T09:08:29;2.40;;;2.20;;
8401;SDS011;4238;48.404;9.498;2024-01-15T09:10:55;2.30;;;2.10;;
8401;SDS011;4238;48.404;9.498;2024-01-15T09:13:23;2.80;;;2.40;;
8401;SDS011;4238;48.404;9.498;2024-01-15T09:15:50;2.53;;;2.27;;
8401;SDS011;4238;48.404;9.498;2024-01-15T09:18:18;2.20;;;2.00;;
8401;SDS011;4238;48.404;9.498;2024-01-15T09:20:45;2.67;;;2.33;;
8401;SDS011;4238;48.404;9.498;2024-01-15T09:23:12;2.40;;;2.20;;
8401;SDS011;4238;48.404;9.498;2024-01-15T09:25:38;3.50;;;2.17;;
8401;SDS011;4238;48.404;9.498;2024-01-15T09:28:05;2.00;;;1.90;;
8401;SDS011;4238;48.404;9.498;2024-01-15T09:30:33;2.47;;;2.20;;
8401;SDS011;4238;48.404;9.498;2024-01-15T09:32:59;2.50;;;2.20;;
8401;SDS011;4238;48.404;9.498;2024-01-15T09:35:28;2.60;;;2.30;;
8401;SDS011;4238;48.404;9.498;2024-01-15T09:37:54;1.73;;;1.63;;
8401;SDS011;4238;48.404;9.498;2024-01-15T09:40:21;2.17;;;2.07;;
8401;SDS011;4238;48.404;9.498;2024-01-15T09:42:49;2.27;;;2.07;;
8401;SDS011;4238;48.404;9.498;2024-01-15T09:45:17;1.20;;;1.10;;
8401;SDS011;4238;48.404;9.498;2024-01-15T09:47:44;1.67;;;1.57;;
8401;SDS011;4238;48.404;9.498;2024-01-15T09:50:11;1.60;;;1.50;;
8401;SDS011;4238;48.404;9.498;2024-01-15T09:52:41;1.33;;;1.23;;
8401;SDS011;4238;48.404;9.498;2024-01-15T09:55:09;1.77;;;1.67;;
8401;SDS011;4238;48.404;9.498;2024-01-15T09:57:37;1.30;;;1.20;;
8401;SDS011;4238;48.404;9.498;2024-01-15T10:00:05;1.67;;;1.57;;
8401;SDS011;4238;48.404;9.498;2024-01-15T10:02:36;1.40;;;1.30;;
8401;SDS011;4238;48.404;9.498;2024-01-15T10:05:03;1.57;;;1.47;;
8401;SDS011;4238;48.404;9.498;2024-01-15T10:07:30;1.20;;;1.20;;
8401;SDS011;4238;48.404;9.498;2024-01-15T10:10:02;1.70;;;1.53;;
8401;SDS011;4238;48.404;9.498;2024-01-15T10:12:30;1.60;;;1.17;;
8401;SDS011;4238;48.404;9.498;2024-01-15T10:14:56;1.17;;;1.10;;
8401;SDS011;4238;48.404;9.498;2024-01-15T10:17:23;3.10;;;2.90;;
8401;SDS011;4238;48.404;9.498;2024-01-15T10:19:52;1.80;;;1.70;;
8401;SDS011;4238;48.404;9.498;2024-01-15T10:22:19;1.40;;;1.00;;
8401;SDS011;4238;48.404;9.498;2024-01-15T10:24:46;2.10;;;1.27;;
8401;SDS011;4238;48.404;9.498;2024-01-15T10:27:14;1.33;;;1.23;;
8401;SDS011;4238;48.404;9.498;2024-01-15T10:29:41;2.90;;;2.70;;
8401;SDS011;4238;48.404;9.498;2024-01-15T10:32:08;2.70;;;2.50;;
8401;SDS011;4238;48.404;9.498;2024-01-15T10:34:37;3.30;;;2.73;;
8401;SDS011;4238;48.404;9.498;2024-01-15T10:37:06;1.43;;;1.37;;
8401;SDS011;4238;48.404;9.498;2024-01-15T10:39:34;2.20;;;2.10;;
8401;SDS011;4238;48.404;9.498;2024-01-15T10:42:02;1.33;;;1.23;;
8401;SDS011;4238;48.404;9.498;2024-01-15T10:44:30;2.17;;;1.97;;
8401;SDS011;4238;48.404;9.498;2024-01-15T10:46:57;3.37;;;2.93;;
8401;SDS011;4238;48.404;9.498;2024-01-15T10:49:24;2.07;;;1.33;;
8401;SDS011;4238;48.404;9.498;2024-01-15T10:51:53;1.20;;;1.13;;
8401;SDS011;4238;48.404;9.498;2024-01-15T10:54:20;1.50;;;1.40;;
8401;SDS011;4238;48.404;9.498;2024-01-15T10:56:49;1.83;;;1.20;;
8401;SDS011;4238;48.404;9.498;2024-01-15T10:59:18;1.77;;;1.67;;
8401;SDS011;4238;48.404;9.498;2024-01-15T11:01:48;1.93;;;1.60;;
8401;SDS011;4238;48.404;9.498;2024-01-15T11:04:18;2.50;;;2.30;;
8401;SDS011;4238;48.404;9.498;2024-01-15T11:06:47;1.63;;;1.53;;
8401;SDS011;4238;48.404;9.498;2024-01-15T11:09:16;2.13;;;2.03;;
8401;SDS011;4238;48.404;9.498;2024-01-15T11:11:44;2.70;;;2.50;;
8401;SDS011;4238;48.404;9.498;2024-01-15T11:17:06;1.63;;;1.47;;
8401;SDS011;4238;48.404;9.498;2024-01-15T11:19:36;2.33;;;1.70;;
8401;SDS011;4238;48.404;9.498;2024-01-15T11:22:05;1.33;;;1.27;;
8401;SDS011;4238;48.404;9.498;2024-01-15T11:24:34;1.57;;;1.47;;
8401;SDS011;4238;48.404;9.498;2024-01-15T11:27:02;1.90;;;1.63;;
8401;SDS011;4238;48.404;9.498;2024-01-15T11:29:29;1.50;;;1.30;;
8401;SDS011;4238;48.404;9.498;2024-01-15T11:31:59;1.63;;;1.53;;
8401;SDS011;4238;48.404;9.498;2024-01-15T11:37:23;1.40;;;1.30;;
8401;SDS011;4238;48.404;9.498;2024-01-15T11:39:51;1.33;;;1.23;;
8401;SDS011;4238;48.404;9.498;2024-01-15T11:42:19;1.80;;;1.70;;
8401;SDS011;4238;48.404;9.498;2024-01-15T11:44:46;2.03;;;1.93;;
8401;SDS011;4238;48.404;9.498;2024-01-15T11:47:14;2.27;;;1.43;;
8401;SDS011;4238;48.404;9.498;2024-01-15T11:49:59;1.50;;;1.40;;
8401;SDS011;4238;48.404;9.498;2024-01-15T11:52:31;1.93;;;1.67;;
8401;SDS011;4238;48.404;9.498;2024-01-15T11:55:00;1.60;;;1.50;;
8401;SDS011;4238;48.404;9.498;2024-01-15T11:57:37;1.70;;;1.60;;
8401;SDS011;4238;48.404;9.498;2024-01-15T12:00:08;3.03;;;2.73;;
8401;SDS011;4238;48.404;9.498;2024-01-15T12:02:36;4.40;;;3.07;;
8401;SDS011;4238;48.404;9.498;2024-01-15T12:05:05;4.23;;;3.87;;
8401;SDS011;4238;48.404;9.498;2024-01-15T12:07:32;2.43;;;2.30;;
8401;SDS011;4238;48.404;9.498;2024-01-15T12:09:59;2.30;;;2.03;;
8401;SDS011;4238;48.404;9.498;2024-01-15T12:12:27;2.10;;;2.00;;
8401;SDS011;4238;48.404;9.498;2024-01-15T12:15:04;2.90;;;2.70;;
8401;SDS011;4238;48.404;9.498;2024-01-15T12:17:31;4.13;;;3.83;;
8401;SDS011;4238;48.404;9.498;2024-01-15T12:19:58;2.43;;;2.33;;
8401;SDS011;4238;48.404;9.498;2024-01-15T12:22:26;1.83;;;1.73;;
8401;SDS011;4238;48.404;9.498;2024-01-15T12:24:53;1.83;;;1.73;;
8401;SDS011;4238;48.404;9.498;2024-01-15T12:27:20;8.17;;;5.43;;
8401;SDS011;4238;48.404;9.498;2024-01-15T12:29:48;3.60;;;3.30;;
8401;SDS011;4238;48.404;9.498;2024-01-15T12:32:14;3.73;;;2.90;;
8401;SDS011;4238;48.404;9.498;2024-01-15T12:34:41;5.83;;;4.13;;
8401;SDS011;4238;48.404;9.498;2024-01-15T12:37:09;3.83;;;2.93;;
8401;SDS011;4238;48.404;9.498;2024-01-15T12:39:38;6.33;;;4.17;;
8401;SDS011;4238;48.404;9.498;2024-01-15T12:42:08;4.83;;;3.60;;
8401;SDS011;4238;48.404;9.498;2024-01-15T12:44:35;2.50;;;2.30;;
8401;SDS011;4238;48.404;9.498;2024-01-15T12:47:03;4.70;;;3.47;;
8401;SDS011;4238;48.404;9.498;2024-01-15T12:49:30;8.87;;;5.37;;
8401;SDS011;4238;48.404;9.498;2024-01-15T12:51:57;3.00;;;2.80;;
8401;SDS011;4238;48.404;9.498;2024-01-15T12:54:25;2.73;;;2.53;;
8401;SDS011;4238;48.404;9.498;2024-01-15T12:56:54;2.83;;;2.60;;
8401;SDS011;4238;48.404;9.498;2024-01-15T12:59:21;3.10;;;2.90;;
8401;SDS011;4238;48.404;9.498;2024-01-15T13:01:47;2.40;;;2.20;;
8401;SDS011;4238;48.404;9.498;2024-01-15T13:04:20;2.73;;;2.57;;
8401;SDS011;4238;48.404;9.498;2024-01-15T13:06:48;2.47;;;2.27;;
8401;SDS011;4238;48.404;9.498;2024-01-15T13:09:15;2.70;;;2.50;;
8401;SDS011;4238;48.404;9.498;2024-01-15T13:11:43;3.33;;;2.90;;
8401;SDS011;4238;48.404;9.498;2024-01-15T13:14:11;2.10;;;1.90;;
8401;SDS011;4238;48.404;9.498;2024-01-15T13:16:39;3.60;;;2.90;;
8401;SDS011;4238;48.404;9.498;2024-01-15T13:19:06;3.20;;;2.90;;
8401;SDS011;4238;48.404;9.498;2024-01-15T13:21:36;2.60;;;2.40;;
8401;SDS011;4238;48.404;9.498;2024-01-15T13:24:08;3.47;;;3.27;;
8401;SDS011;4238;48.404;9.498;2024-01-15T13:26:37;3.10;;;2.80;;
8401;SDS011;4238;48.404;9.498;2024-01-15T13:29:04;2.60;;;2.40;;
8401;SDS011;4238;48.404;9.498;2024-01-15T13:31:32;2.90;;;2.60;;
8401;SDS011;4238;48.404;9.498;2024-01-15T13:33:59;3.73;;;3.03;;
8401;SDS011;4238;48.404;9.498;2024-01-15T13:36:26;2.30;;;2.10;;
8401;SDS011;4238;48.404;9.498;2024-01-15T13:38:54;3.90;;;3.30;;
8401;SDS011;4238;48.404;9.498;2024-01-15T13:41:21;3.07;;;2.77;;
8401;SDS011;4238;48.404;9.498;2024-01-15T13:43:52;2.90;;;2.60;;
8401;SDS011;4238;48.404;9.498;2024-01-15T13:46:20;3.17;;;2.80;;
8401;SDS011;4238;48.404;9.498;2024-01-15T13:48:52;3.40;;;2.83;;
8401;SDS011;4238;48.404;9.498;2024-01-15T13:51:21;3.77;;;2.93;;
8401;SDS011;4238;48.404;9.498;2024-01-15T13:53:48;4.33;;;3.10;;
8401;SDS011;4238;48.404;9.498;2024-01-15T13:56:15;4.13;;;3.53;;
8401;SDS011;4238;48.404;9.498;2024-01-15T13:58:42;3.77;;;3.47;;
8401;SDS011;4238;48.404;9.498;2024-01-15T14:01:09;4.03;;;3.23;;
8401;SDS011;4238;48.404;9.498;2024-01-15T14:03:36;4.33;;;3.30;;
8401;SDS011;4238;48.404;9.498;2024-01-15T14:06:04;4.73;;;3.00;;
8401;SDS011;4238;48.404;9.498;2024-01-15T14:08:33;4.37;;;3.50;;
8401;SDS011;4238;48.404;9.498;2024-01-15T14:11:01;5.37;;;3.97;;
8401;SDS011;4238;48.404;9.498;2024-01-15T14:13:28;4.13;;;3.10;;
8401;SDS011;4238;48.404;9.498;2024-01-15T14:15:55;3.70;;;3.20;;
8401;SDS011;4238;48.404;9.498;2024-01-15T14:18:21;3.80;;;3.10;;
8401;SDS011;4238;48.404;9.498;2024-01-15T14:20:48;4.07;;;3.13;;
8401;SDS011;4238;48.404;9.498;2024-01-15T14:23:17;4.40;;;3.10;;
8401;SDS011;4238;48.404;9.498;2024-01-15T14:25:44;5.23;;;3.73;;
8401;SDS011;4238;48.404;9.498;2024-01-15T14:28:11;5.90;;;3.63;;
8401;SDS011;4238;48.404;9.498;2024-01-15T14:30:38;4.27;;;3.40;;
8401;SDS011;4238;48.404;9.498;2024-01-15T14:33:05;6.13;;;3.30;;
8401;SDS011;4238;48.404;9.498;2024-01-15T14:35:32;6.50;;;5.13;;
8401;SDS011;4238;48.404;9.498;2024-01-15T14:37:58;4.73;;;4.23;;
8401;SDS011;4238;48.404;9.498;2024-01-15T14:40:27;7.13;;;5.13;;
8401;SDS011;4238;48.404;9.498;2024-01-15T14:42:54;7.13;;;4.20;;
8401;SDS011;4238;48.404;9.498;2024-01-15T14:45:21;3.43;;;3.10;;
8401;SDS011;4238;48.404;9.498;2024-01-15T14:47:48;5.60;;;3.67;;
8401;SDS011;4238;48.404;9.498;2024-01-15T14:50:15;4.90;;;3.70;;
8401;SDS011;4238;48.404;9.498;2024-01-15T14:52:42;4.80;;;3.33;;
8401;SDS011;4238;48.404;9.498;2024-01-15T14:55:10;7.50;;;5.27;;
8401;SDS011;4238;48.404;9.498;2024-01-15T14:57:38;5.60;;;4.33;;
8401;SDS011;4238;48.404;9.498;2024-01-15T15:00:05;6.90;;;4.50;;
8401;SDS011;4238;48.404;9.498;2024-01-15T15:02:33;6.67;;;4.27;;
8401;SDS011;4238;48.404;9.498;2024-01-15T15:05:01;3.67;;;3.30;;
8401;SDS011;4238;48.404;9.498;2024-01-15T15:07:29;4.27;;;3.00;;
8401;SDS011;4238;48.404;9.498;2024-01-15T15:09:55;6.07;;;4.73;;
8401;SDS011;4238;48.404;9.498;2024-01-15T15:12:22;4.80;;;3.93;;
8401;SDS011;4238;48.404;9.498;2024-01-15T15:14:51;7.80;;;6.00;;
8401;SDS011;4238;48.404;9.498;2024-01-15T15:17:18;6.50;;;4.53;;
8401;SDS011;4238;48.404;9.498;2024-01-15T15:19:44;5.07;;;4.00;;
8401;SDS011;4238;48.404;9.498;2024-01-15T15:22:11;8.13;;;5.37;;
8401;SDS011;4238;48.404;9.498;2024-01-15T15:24:38;4.50;;;4.07;;
8401;SDS011;4238;48.404;9.498;2024-01-15T15:27:05;4.93;;;4.20;;
8401;SDS011;4238;48.404;9.498;2024-01-15T15:29:32;7.10;;;5.17;;
8401;SDS011;4238;48.404;9.498;2024-01-15T15:32:01;3.40;;;3.10;;
8401;SDS011;4238;48.404;9.498;2024-01-15T15:34:28;4.90;;;3.53;;
8401;SDS011;4238;48.404;9.498;2024-01-15T15:36:55;5.87;;;3.87;;
8401;SDS011;4238;48.404;9.498;2024-01-15T15:39:22;4.07;;;3.67;;
8401;SDS011;4238;48.404;9.498;2024-01-15T15:41:49;2.60;;;2.40;;
8401;SDS011;4238;48.404;9.498;2024-01-15T15:44:17;4.73;;;3.43;;
8401;SDS011;4238;48.404;9.498;2024-01-15T15:46:43;2.93;;;2.40;;
8401;SDS011;4238;48.404;9.498;2024-01-15T15:49:12;2.77;;;2.57;;
8401;SDS011;4238;48.404;9.498;2024-01-15T15:51:39;3.33;;;2.90;;
8401;SDS011;4238;48.404;9.498;2024-01-15T15:54:07;3.50;;;3.20;;
8401;SDS011;4238;48.404;9.498;2024-01-15T15:56:34;2.33;;;2.03;;
8401;SDS011;4238;48.404;9.498;2024-01-15T15:59:03;2.83;;;2.20;;
8401;SDS011;4238;48.404;9.498;2024-01-15T16:01:31;3.13;;;2.83;;
8401;SDS011;4238;48.404;9.498;2024-01-15T16:03:58;3.60;;;3.27;;
8401;SDS011;4238;48.404;9.498;2024-01-15T16:06:26;3.40;;;3.10;;
8401;SDS011;4238;48.404;9.498;2024-01-15T16:08:53;3.40;;;3.10;;
8401;SDS011;4238;48.404;9.498;2024-01-15T16:11:20;3.90;;;2.63;;
8401;SDS011;4238;48.404;9.498;2024-01-15T16:13:47;2.90;;;2.70;;
8401;SDS011;4238;48.404;9.498;2024-01-15T16:16:15;3.17;;;2.90;;
8401;SDS011;4238;48.404;9.498;2024-01-15T16:18:42;4.40;;;3.30;;
8401;SDS011;4238;48.404;9.498;2024-01-15T16:21:09;3.40;;;3.10;;
8401;SDS011;4238;48.404;9.498;2024-01-15T16:23:37;4.37;;;3.70;;
8401;SDS011;4238;48.404;9.498;2024-01-15T16:26:04;4.00;;;3.50;;
8401;SDS011;4238;48.404;9.498;2024-01-15T16:28:31;3.50;;;3.17;;
8401;SDS011;4238;48.404;9.498;2024-01-15T16:30:58;4.27;;;3.20;;
8401;SDS011;4238;48.404;9.498;2024-01-15T16:33:25;5.23;;;4.37;;
8401;SDS011;4238;48.404;9.498;2024-01-15T16:35:52;4.47;;;4.07;;
8401;SDS011;4238;48.404;9.498;2024-01-15T16:38:19;4.30;;;3.87;;
8401;SDS011;4238;48.404;9.498;2024-01-15T16:40:47;4.10;;;3.70;;
8401;SDS011;4238;48.404;9.498;2024-01-15T16:43:14;3.57;;;3.13;;
8401;SDS011;4238;48.404;9.498;2024-01-15T16:45:41;4.97;;;3.83;;
8401;SDS011;4238;48.404;9.498;2024-01-15T16:48:08;6.73;;;5.00;;
8401;SDS011;4238;48.404;9.498;2024-01-15T16:50:34;4.43;;;3.73;;
8401;SDS011;4238;48.404;9.498;2024-01-15T16:53:01;4.67;;;4.13;;
8401;SDS011;4238;48.404;9.498;2024-01-15T16:55:28;5.30;;;4.27;;
8401;SDS011;4238;48.404;9.498;2024-01-15T16:57:56;4.30;;;3.90;;
8401;SDS011;4238;48.404;9.498;2024-01-15T17:00:23;4.00;;;3.70;;
8401;SDS011;4238;48.404;9.498;2024-01-15T17:02:51;7.33;;;5.00;;
8401;SDS011;4238;48.404;9.498;2024-01-15T17:05:21;5.87;;;3.93;;
8401;SDS011;4238;48.404;9.498;2024-01-15T17:07:48;4.90;;;3.70;;
8401;SDS011;4238;48.404;9.498;2024-01-15T17:10:15;6.23;;;3.80;;
8401;SDS011;4238;48.404;9.498;2024-01-15T17:12:42;5.70;;;4.40;;
8401;SDS011;4238;48.404;9.498;2024-01-15T17:15:10;8.70;;;4.53;;
8401;SDS011;4238;48.404;9.498;2024-01-15T17:17:37;4.20;;;3.67;;
8401;SDS011;4238;48.404;9.498;2024-01-15T17:20:05;7.60;;;4.50;;
8401;SDS011;4238;48.404;9.498;2024-01-15T17:22:33;7.10;;;3.90;;
8401;SDS011;4238;48.404;9.498;2024-01-15T17:25:01;4.47;;;3.70;;
8401;SDS011;4238;48.404;9.498;2024-01-15T17:27:28;5.23;;;4.43;;
8401;SDS011;4238;48.404;9.498;2024-01-15T17:29:55;5.70;;;4.60;;
8401;SDS011;4238;48.404;9.498;2024-01-15T17:32:23;5.60;;;4.03;;
8401;SDS011;4238;48.404;9.498;2024-01-15T17:34:50;6.53;;;3.77;;
8401;SDS011;4238;48.404;9.498;2024-01-15T17:37:17;4.57;;;4.17;;
8401;SDS011;4238;48.404;9.498;2024-01-15T17:39:44;5.07;;;3.83;;
8401;SDS011;4238;48.404;9.498;2024-01-15T17:42:11;4.07;;;3.53;;
8401;SDS011;4238;48.404;9.498;2024-01-15T17:44:38;4.47;;;4.07;;
8401;SDS011;4238;48.404;9.498;2024-01-15T17:47:07;4.53;;;3.93;;
8401;SDS011;4238;48.404;9.498;2024-01-15T17:49:35;4.37;;;3.83;;
8401;SDS011;4238;48.404;9.498;2024-01-15T17:52:02;6.67;;;4.40;;
8401;SDS011;4238;48.404;9.498;2024-01-15T17:54:29;12.50;;;7.70;;
8401;SDS011;4238;48.404;9.498;2024-01-15T17:56:56;8.57;;;4.80;;
8401;SDS011;4238;48.404;9.498;2024-01-15T17:59:23;7.60;;;5.63;;
8401;SDS011;4238;48.404;9.498;2024-01-15T18:01:50;5.33;;;4.73;;
8401;SDS011;4238;48.404;9.498;2024-01-15T18:04:17;5.83;;;4.20;;
8401;SDS011;4238;48.404;9.498;2024-01-15T18:06:46;6.07;;;4.37;;
8401;SDS011;4238;48.404;9.498;2024-01-15T18:09:14;6.50;;;5.17;;
8401;SDS011;4238;48.404;9.498;2024-01-15T18:11:42;5.00;;;4.07;;
8401;SDS011;4238;48.404;9.498;2024-01-15T18:14:09;4.63;;;3.70;;
8401;SDS011;4238;48.404;9.498;2024-01-15T18:16:37;6.10;;;4.70;;
8401;SDS011;4238;48.404;9.498;2024-01-15T18:19:04;7.93;;;5.43;;
8401;SDS011;4238;48.404;9.498;2024-01-15T18:21:31;8.23;;;4.90;;
8401;SDS011;4238;48.404;9.498;2024-01-15T18:23:59;4.93;;;3.93;;
8401;SDS011;4238;48.404;9.498;2024-01-15T18:26:26;4.73;;;3.60;;
8401;SDS011;4238;48.404;9.498;2024-01-15T18:28:53;6.17;;;4.50;;
8401;SDS011;4238;48.404;9.498;2024-01-15T18:31:20;4.23;;;3.57;;
8401;SDS011;4238;48.404;9.498;2024-01-15T18:33:47;3.87;;;3.57;;
8401;SDS011;4238;48.404;9.498;2024-01-15T18:36:13;4.90;;;3.87;;
8401;SDS011;4238;48.404;9.498;2024-01-15T18:38:40;4.83;;;4.00;;
8401;SDS011;4238;48.404;9.498;2024-01-15T18:41:09;4.70;;;3.57;;
8401;SDS011;4238;48.404;9.498;2024-01-15T18:43:45;3.87;;;3.40;;
8401;SDS011;4238;48.404;9.498;2024-01-15T18:46:12;4.20;;;3.80;;
8401;SDS011;4238;48.404;9.498;2024-01-15T18:48:39;5.87;;;4.23;;
8401;SDS011;4238;48.404;9.498;2024-01-15T18:51:06;6.50;;;3.77;;
8401;SDS011;4238;48.404;9.498;2024-01-15T18:53:33;3.63;;;3.23;;
8401;SDS011;4238;48.404;9.498;2024-01-15T18:56:01;4.13;;;3.23;;
8401;SDS011;4238;48.404;9.498;2024-01-15T18:58:29;5.03;;;3.90;;
8401;SDS011;4238;48.404;9.498;2024-01-15T19:00:56;5.50;;;4.00;;
8401;SDS011;4238;48.404;9.498;2024-01-15T19:03:23;4.93;;;3.67;;
8401;SDS011;4238;48.404;9.498;2024-01-15T19:05:50;5.50;;;4.20;;
8401;SDS011;4238;48.404;9.498;2024-01-15T19:08:17;5.10;;;4.30;;
8401;SDS011;4238;48.404;9.498;2024-01-15T19:10:44;5.23;;;3.50;;
8401;SDS011;4238;48.404;9.498;2024-01-15T19:13:11;3.73;;;3.43;;
8401;SDS011;4238;48.404;9.498;2024-01-15T19:15:39;5.37;;;3.67;;
8401;SDS011;4238;48.404;9.498;2024-01-15T19:18:06;4.20;;;3.50;;
8401;SDS011;4238;48.404;9.498;2024-01-15T19:20:33;6.87;;;4.30;;
8401;SDS011;4238;48.404;9.498;2024-01-15T19:23:00;5.00;;;3.47;;
8401;SDS011;4238;48.404;9.498;2024-01-15T19:25:26;4.17;;;3.77;;
8401;SDS011;4238;48.404;9.498;2024-01-15T19:27:53;5.57;;;3.40;;
8401;SDS011;4238;48.404;9.498;2024-01-15T19:30:20;5.73;;;5.07;;
8401;SDS011;4238;48.404;9.498;2024-01-15T19:32:48;5.93;;;3.80;;
8401;SDS011;4238;48.404;9.498;2024-01-15T19:35:15;4.30;;;4.00;;
8401;SDS011;4238;48.404;9.498;2024-01-15T19:37:42;3.83;;;3.43;;
8401;SDS011;4238;48.404;9.498;2024-01-15T19:40:09;3.60;;;3.23;;
8401;SDS011;4238;48.404;9.498;2024-01-15T19:42:37;3.57;;;3.27;;
8401;SDS011;4238;48.404;9.498;2024-01-15T19:45:04;4.37;;;3.97;;
8401;SDS011;4238;48.404;9.498;2024-01-15T19:47:31;4.93;;;3.43;;
8401;SDS011;4238;48.404;9.498;2024-01-15T19:50:00;4.30;;;3.53;;
8401;SDS011;4238;48.404;9.498;2024-01-15T19:52:27;3.40;;;3.00;;
8401;SDS011;4238;48.404;9.498;2024-01-15T19:54:53;4.53;;;3.23;;
8401;SDS011;4238;48.404;9.498;2024-01-15T19:57:21;3.70;;;3.40;;
8401;SDS011;4238;48.404;9.498;2024-01-15T19:59:48;3.93;;;3.47;;
8401;SDS011;4238;48.404;9.498;2024-01-15T20:02:18;3.77;;;3.33;;
8401;SDS011;4238;48.404;9.498;2024-01-15T20:04:45;3.47;;;3.17;;
8401;SDS011;4238;48.404;9.498;2024-01-15T20:07:13;3.53;;;3.10;;
8401;SDS011;4238;48.404;9.498;2024-01-15T20:09:40;4.07;;;3.50;;
8401;SDS011;4238;48.404;9.498;2024-01-15T20:12:07;3.80;;;3.50;;
8401;SDS011;4238;48.404;9.498;2024-01-15T20:14:34;4.37;;;3.00;;
8401;SDS011;4238;48.404;9.498;2024-01-15T20:17:01;3.60;;;3.30;;
8401;SDS011;4238;48.404;9.498;2024-01-15T20:19:29;4.90;;;3.47;;
8401;SDS011;4238;48.404;9.498;2024-01-15T20:21:56;4.23;;;3.57;;